Lila Mae — WDI7486 — position and weather

sailwx.info

Track history (hours):
 
Tides and Currents Weather Stations Pressure Air Temp Water Temp Dewpoint Dewpoint Depression Visibility Wind Speed Wind Dir Waves Ship Positions

Lila Mae

Owner: Pinnacle III, LP, Pasadena, TX. More information available from US FCC via Universal Licensing System and Coast Guard Vessel Documentation Center.

Last reported at 2017-Oct-15 22:18 UTC. Time now 2017-Oct-17 04:00 UTC.
Position N 29°28' W 094°54'.

Length 28 m; draft 3 m.

MMSI: 367729220.

Date/timePositionNaut miles runAvg speedWind from/ knotsBaromVisibWave heightAir tempDewpointWater temp
2017-Oct-15 22:18N 29°28' W 094°54'2 7.1
2017-Oct-15 22:00N 29°28' W 094°57'1 1.4
2017-Oct-15 21:28N 29°28' W 094°58'0 0.8
2017-Oct-15 21:00N 29°28' W 094°58'0 0.0
2017-Oct-15 20:30N 29°28' W 094°58'0 0.8
2017-Oct-15 19:59N 29°28' W 094°58'0 0.1
2017-Oct-15 19:27N 29°28' W 094°58'0 1.0
2017-Oct-15 19:00N 29°28' W 094°58'1 1.2
2017-Oct-15 18:30N 29°28' W 094°57'  
2017-Oct-10 02:10N 29°28' W 094°54'1 7.4
2017-Oct-10 02:00N 29°27' W 094°55'3 5.7
2017-Oct-10 01:29N 29°28' W 094°58'0 1.0
2017-Oct-10 01:00N 29°28' W 094°58'0 0.0
2017-Oct-10 00:30N 29°28' W 094°58'0 0.0
2017-Oct-10 00:00N 29°28' W 094°58'0 0.0
2017-Oct-09 23:28N 29°28' W 094°58'0 0.0
2017-Oct-09 23:00N 29°28' W 094°58'0 0.0
2017-Oct-09 22:30N 29°28' W 094°58'0 0.0
2017-Oct-09 21:58N 29°28' W 094°58'0 0.0
2017-Oct-09 21:30N 29°28' W 094°58'0 0.0
2017-Oct-09 20:57N 29°28' W 094°58'0 0.0
2017-Oct-09 20:30N 29°28' W 094°58'0 0.0
2017-Oct-09 20:00N 29°28' W 094°58'0 0.0
2017-Oct-09 19:30N 29°28' W 094°58'0 0.0
2017-Oct-09 19:00N 29°28' W 094°58'0 0.0
2017-Oct-09 18:29N 29°28' W 094°58'0 0.0
2017-Oct-09 18:00N 29°28' W 094°58'0 0.0
2017-Oct-09 17:30N 29°28' W 094°58'0 0.0
2017-Oct-09 17:00N 29°28' W 094°58'0 0.0
2017-Oct-09 16:30N 29°28' W 094°58'0 0.8
2017-Oct-09 15:58N 29°28' W 094°58'1 1.2
2017-Oct-09 15:29N 29°28' W 094°57'0 1.0
2017-Oct-09 15:00N 29°28' W 094°57'  
Track history (hours):
 
Tides and Currents Weather Stations Pressure Air Temp Water Temp Dewpoint Dewpoint Depression Visibility Wind Speed Wind Dir Waves Ship Positions

Lila Mae

Owner: Pinnacle III, LP, Pasadena, TX. More information available from US FCC via Universal Licensing System and Coast Guard Vessel Documentation Center.

Last reported at 2017-Oct-15 22:18 UTC. Time now 2017-Oct-17 04:00 UTC.
Position N 29°28' W 094°54'.

Length 28 m; draft 3 m.

MMSI: 367729220.

Date/timePositionNaut miles runAvg speedWind from/ knotsBaromVisibWave heightAir tempDewpointWater temp
2017-Oct-15 22:18N 29°28' W 094°54'2 7.1
2017-Oct-15 22:00N 29°28' W 094°57'1 1.4
2017-Oct-15 21:28N 29°28' W 094°58'0 0.8
2017-Oct-15 21:00N 29°28' W 094°58'0 0.0
2017-Oct-15 20:30N 29°28' W 094°58'0 0.8
2017-Oct-15 19:59N 29°28' W 094°58'0 0.1
2017-Oct-15 19:27N 29°28' W 094°58'0 1.0
2017-Oct-15 19:00N 29°28' W 094°58'1 1.2
2017-Oct-15 18:30N 29°28' W 094°57'  
2017-Oct-10 02:10N 29°28' W 094°54'1 7.4
2017-Oct-10 02:00N 29°27' W 094°55'3 5.7
2017-Oct-10 01:29N 29°28' W 094°58'0 1.0
2017-Oct-10 01:00N 29°28' W 094°58'0 0.0
2017-Oct-10 00:30N 29°28' W 094°58'0 0.0
2017-Oct-10 00:00N 29°28' W 094°58'0 0.0
2017-Oct-09 23:28N 29°28' W 094°58'0 0.0
2017-Oct-09 23:00N 29°28' W 094°58'0 0.0
2017-Oct-09 22:30N 29°28' W 094°58'0 0.0
2017-Oct-09 21:58N 29°28' W 094°58'0 0.0
2017-Oct-09 21:30N 29°28' W 094°58'0 0.0
2017-Oct-09 20:57N 29°28' W 094°58'0 0.0
2017-Oct-09 20:30N 29°28' W 094°58'0 0.0
2017-Oct-09 20:00N 29°28' W 094°58'0 0.0
2017-Oct-09 19:30N 29°28' W 094°58'0 0.0
2017-Oct-09 19:00N 29°28' W 094°58'0 0.0
2017-Oct-09 18:29N 29°28' W 094°58'0 0.0
2017-Oct-09 18:00N 29°28' W 094°58'0 0.0
2017-Oct-09 17:30N 29°28' W 094°58'0 0.0
2017-Oct-09 17:00N 29°28' W 094°58'0 0.0
2017-Oct-09 16:30N 29°28' W 094°58'0 0.8
2017-Oct-09 15:58N 29°28' W 094°58'1 1.2
2017-Oct-09 15:29N 29°28' W 094°57'0 1.0
2017-Oct-09 15:00N 29°28' W 094°57'  

Dump ship's entire track history